Time;durP1;ratioP1;P1;durP2;ratioP2;P2;SDS_P1;SDS_P2;PMS_P1;PMS_P2;Temp;Humidity;BMP_temperature;BMP_pressure;BME280_temperature;BME280_humidity;BME280_pressure;Samples;Min_cycle;Max_cycle;Signal;HPM_P1;HPM_P2
2022/01/09 00:00:14;;;;;;;4.20;2.80;;;;;;;22.30;35.83;100278.61;104519;1308;73697;-84
2022/01/09 00:02:51;;;;;;;5.60;3.40;;;;;;;22.31;35.88;100272.33;104628;1308;74812;-83
2022/01/09 00:05:22;;;;;;;4.80;3.10;;;;;;;22.30;35.73;100273.06;104512;1308;60467;-82
2022/01/09 00:07:53;;;;;;;4.30;2.90;;;;;;;22.31;35.84;100265.52;104545;1308;61391;-83
2022/01/09 00:10:19;;;;;;;4.40;3.20;;;;;;;22.31;35.74;100264.77;104373;1311;74282;-87
2022/01/09 00:12:52;;;;;;;4.20;3.10;;;;;;;22.31;35.66;100258.48;104236;1311;60586;-83
2022/01/09 00:15:21;;;;;;;4.70;3.00;;;;;;;22.31;35.70;100258.69;104361;1311;60683;-82
2022/01/09 00:17:49;;;;;;;4.60;3.10;;;;;;;22.32;35.86;100257.02;104351;1311;60508;-86
2022/01/09 00:20:40;;;;;;;4.80;3.10;;;;;;;22.31;35.71;100251.64;103814;1318;71559;-83
2022/01/09 00:23:18;;;;;;;4.10;2.90;;;;;;;22.32;35.98;100251.45;103770;1320;75355;-84
2022/01/09 00:25:53;;;;;;;4.30;3.10;;;;;;;22.32;35.86;100248.37;103702;1319;61587;-83
2022/01/09 00:28:40;;;;;;;4.30;2.80;;;;;;;22.32;35.74;100250.33;103718;1318;60507;-82
2022/01/09 00:31:26;;;;;;;4.50;3.10;;;;;;;22.32;35.74;100246.42;103674;1320;73025;-82
2022/01/09 00:33:54;;;;;;;4.50;2.80;;;;;;;22.32;35.80;100240.81;103469;1319;74110;-82
2022/01/09 00:36:38;;;;;;;4.00;2.80;;;;;;;22.32;35.80;100238.48;103447;1319;61784;-80
2022/01/09 00:39:10;;;;;;;4.60;2.80;;;;;;;22.32;35.87;100239.73;103561;1320;60465;-84
2022/01/09 00:41:56;;;;;;;4.80;2.60;;;;;;;22.32;35.86;100236.52;103890;1314;72906;-81
2022/01/09 00:44:25;;;;;;;3.90;2.70;;;;;;;22.33;35.87;100234.52;104193;1314;74939;-84
2022/01/09 00:47:04;;;;;;;4.30;2.60;;;;;;;22.32;35.90;100233.98;104155;1314;62022;-82
2022/01/09 00:49:41;;;;;;;4.10;2.90;;;;;;;22.33;35.86;100228.58;104183;1314;61494;-82
2022/01/09 00:52:24;;;;;;;4.30;2.90;;;;;;;22.33;35.97;100222.67;104157;1314;72911;-85
2022/01/09 00:54:56;;;;;;;;;;;;;;;22.33;35.97;100226.80;104157;1314;73901;-82
2022/01/09 00:57:45;;;;;;;4.50;3.00;;;;;;;22.31;35.95;100220.30;104246;1308;61372;-84
2022/01/09 01:00:40;;;;;;;4.00;2.80;;;;;;;22.32;35.77;100220.06;104214;1314;60353;-83
2022/01/09 01:03:09;;;;;;;3.60;2.60;;;;;;;22.32;35.69;100215.92;104187;1314;74282;-83
2022/01/09 01:05:55;;;;;;;5.40;3.10;;;;;;;22.32;35.82;100212.30;104297;1314;74019;-85
2022/01/09 01:08:31;;;;;;;4.00;2.60;;;;;;;22.32;35.84;100207.31;104284;1314;60478;-84
2022/01/09 01:11:05;;;;;;;5.80;3.00;;;;;;;22.32;35.84;100208.38;104043;1314;60602;-83
2022/01/09 01:13:42;;;;;;;4.10;2.60;;;;;;;22.32;35.75;100208.38;104243;1314;72639;-84
2022/01/09 01:16:47;;;;;;;4.50;2.90;;;;;;;22.32;35.94;100204.80;103161;1320;72938;-83
2022/01/09 01:19:34;;;;;;;4.10;2.70;;;;;;;22.33;36.11;100201.84;103438;1318;61001;-84
2022/01/09 01:22:19;;;;;;;4.80;3.00;;;;;;;22.33;36.00;100198.60;103343;1322;61480;-84
2022/01/09 01:24:56;;;;;;;3.90;2.70;;;;;;;22.34;35.88;100196.77;103504;1320;73949;-84
2022/01/09 01:28:02;;;;;;;4.30;2.80;;;;;;;22.34;36.13;100192.41;103234;1322;75160;-82
2022/01/09 01:30:51;;;;;;;4.00;2.70;;;;;;;22.34;35.81;100192.48;102755;1330;60591;-85
2022/01/09 01:33:36;;;;;;;;;;;;;;;;;;;;;
2022/01/09 01:36:18;;;;;;;4.60;2.90;;;;;;;22.34;35.99;100191.55;102772;1330;72902;-82
2022/01/09 01:38:59;;;;;;;4.20;2.60;;;;;;;22.35;35.97;100192.75;103163;1323;74102;-85
2022/01/09 01:41:45;;;;;;;4.90;3.20;;;;;;;22.34;35.96;100186.68;103035;1324;60452;-87
2022/01/09 01:44:20;;;;;;;3.70;2.60;;;;;;;22.35;36.18;100185.03;103084;1323;61602;-84
2022/01/09 01:47:06;;;;;;;4.00;2.60;;;;;;;22.35;36.09;100180.22;103063;1324;72932;-86
2022/01/09 01:50:20;;;;;;;3.40;2.30;;;;;;;22.35;36.13;100173.01;103027;1322;74078;-81
2022/01/09 01:52:56;;;;;;;4.40;2.70;;;;;;;22.34;36.14;100163.73;103047;1324;61666;-82
2022/01/09 01:55:38;;;;;;;3.60;2.50;;;;;;;22.35;36.10;100158.65;103190;1322;60551;-83
2022/01/09 01:58:16;;;;;;;4.30;2.90;;;;;;;22.36;36.16;100151.64;103068;1322;73054;-86
2022/01/09 02:00:54;;;;;;;5.40;2.90;;;;;;;22.36;36.06;100147.14;103326;1323;73010;-84
2022/01/09 02:03:39;;;;;;;;;;;;;;;;;;;;;
2022/01/09 02:06:08;;;;;;;4.10;2.70;;;;;;;22.36;35.88;100136.56;103170;1321;61653;-84
2022/01/09 02:09:13;;;;;;;4.10;2.70;;;;;;;22.36;36.09;100135.83;104268;1314;73057;-85
2022/01/09 02:11:41;;;;;;;4.20;2.70;;;;;;;22.35;36.03;100127.26;104237;1314;76806;-81
2022/01/09 02:14:20;;;;;;;4.30;2.80;;;;;;;22.36;35.99;100128.10;104206;1314;61311;-83
2022/01/09 02:16:53;;;;;;;4.30;2.70;;;;;;;22.36;36.05;100126.28;104238;1314;61377;-79
2022/01/09 02:19:21;;;;;;;4.80;2.70;;;;;;;22.36;36.02;100121.50;104139;1314;74096;-85
2022/01/09 02:22:11;;;;;;;5.10;2.70;;;;;;;22.37;36.06;100118.23;103866;1314;75259;-82
2022/01/09 02:24:37;;;;;;;4.40;2.80;;;;;;;22.37;36.15;100112.64;104254;1314;60468;-86
2022/01/09 02:27:23;;;;;;;4.00;2.70;;;;;;;22.37;36.00;100109.22;104284;1314;60462;-85
2022/01/09 02:30:02;;;;;;;4.10;2.90;;;;;;;22.37;36.04;100105.48;104153;1314;73035;-84
2022/01/09 02:32:28;;;;;;;4.10;2.60;;;;;;;22.37;36.06;100103.67;104114;1317;74951;-83
2022/01/09 02:35:02;;;;;;;4.60;2.90;;;;;;;22.36;36.03;100101.55;104212;1314;60523;-84
2022/01/09 02:37:45;;;;;;;3.90;2.70;;;;;;;22.36;36.06;100096.89;104154;1314;62478;-83
2022/01/09 02:40:23;;;;;;;3.90;2.60;;;;;;;22.37;36.11;100092.74;104159;1314;73082;-82
2022/01/09 02:42:55;;;;;;;3.80;2.60;;;;;;;22.37;36.15;100086.80;104101;1317;74088;-84
2022/01/09 02:45:26;;;;;;;4.10;2.80;;;;;;;22.37;36.13;100079.67;103932;1316;60487;-82
2022/01/09 02:48:02;;;;;;;4.10;2.70;;;;;;;22.37;36.14;100080.31;103944;1316;60524;-84
2022/01/09 02:50:41;;;;;;;3.90;2.70;;;;;;;22.37;36.03;100076.02;104209;1314;72881;-79
2022/01/09 02:53:20;;;;;;;3.50;2.60;;;;;;;22.38;35.92;100070.23;104100;1317;73903;-82
2022/01/09 02:56:03;;;;;;;4.30;2.70;;;;;;;22.37;36.00;100064.55;104278;1314;60603;-85
2022/01/09 02:58:38;;;;;;;4.60;2.80;;;;;;;22.37;36.11;100060.81;104287;1314;60444;-84
2022/01/09 03:01:20;;;;;;;4.00;2.60;;;;;;;22.37;36.08;100057.02;104196;1314;72968;-84
2022/01/09 03:03:46;;;;;;;4.30;2.60;;;;;;;22.37;36.02;100048.45;104173;1315;75246;-82
2022/01/09 03:06:22;;;;;;;4.40;2.70;;;;;;;22.37;36.03;100048.93;104218;1314;60497;-83
2022/01/09 03:08:50;;;;;;;3.80;2.70;;;;;;;22.38;36.20;100049.78;104147;1314;61255;-83
2022/01/09 03:11:28;;;;;;;3.70;2.50;;;;;;;22.38;36.11;100050.52;104117;1316;72580;-83
2022/01/09 03:14:07;;;;;;;3.70;2.60;;;;;;;22.38;36.18;100045.64;103934;1316;74078;-83
2022/01/09 03:16:39;;;;;;;4.40;3.10;;;;;;;22.38;36.04;100038.48;104205;1314;62221;-84
2022/01/09 03:19:08;;;;;;;4.60;2.90;;;;;;;22.38;36.18;100031.30;104191;1314;61415;-84
2022/01/09 03:21:36;;;;;;;5.00;2.70;;;;;;;22.39;36.03;100023.17;104224;1313;72599;-84
2022/01/09 03:24:08;;;;;;;4.60;2.80;;;;;;;22.38;36.21;100021.05;104140;1317;75072;-82
2022/01/09 03:26:44;;;;;;;4.60;2.50;;;;;;;22.39;36.05;100021.22;103931;1314;60940;-83
2022/01/09 03:29:12;;;;;;;4.10;2.70;;;;;;;22.38;36.23;100023.23;103906;1316;61699;-87
2022/01/09 03:31:38;;;;;;;4.00;2.70;;;;;;;22.39;36.11;100021.56;104151;1313;73004;-83
2022/01/09 03:34:45;;;;;;;4.30;2.70;;;;;;;22.39;36.14;100018.17;104262;1313;73042;-83
2022/01/09 03:37:16;;;;;;;4.30;2.70;;;;;;;22.39;36.19;100010.64;104222;1315;61617;-83
2022/01/09 03:39:51;;;;;;;4.20;2.80;;;;;;;22.39;36.01;100008.83;104199;1315;60679;-82
2022/01/09 03:42:26;;;;;;;4.80;2.90;;;;;;;22.39;36.27;100006.69;104334;1313;72828;-86
2022/01/09 03:45:12;;;;;;;4.30;2.80;;;;;;;22.39;36.31;100009.70;103957;1315;74043;-82
2022/01/09 03:47:43;;;;;;;4.00;2.70;;;;;;;22.39;36.33;100010.63;104302;1313;60603;-83
2022/01/09 03:50:20;;;;;;;3.60;2.50;;;;;;;22.39;36.11;100005.80;104165;1315;60662;-88
2022/01/09 03:52:59;;;;;;;4.50;2.40;;;;;;;22.39;36.30;100006.64;104271;1313;73595;-84
2022/01/09 03:55:48;;;;;;;4.50;2.80;;;;;;;22.39;36.24;100009.17;103957;1314;74122;-84
2022/01/09 03:58:35;;;;;;;;;;;;;;;;;;;;;
2022/01/09 04:01:06;;;;;;;3.90;2.50;;;;;;;22.39;36.11;100002.69;104153;1314;61360;-84
2022/01/09 04:04:04;;;;;;;4.00;2.50;;;;;;;22.39;36.16;99999.45;103990;1314;71547;-87
2022/01/09 04:06:45;;;;;;;4.40;2.60;;;;;;;22.40;36.07;99995.11;104179;1314;74095;-84
2022/01/09 04:09:36;;;;;;;3.90;2.60;;;;;;;22.40;36.26;99995.80;104210;1313;61475;-86
2022/01/09 04:12:31;;;;;;;3.80;2.50;;;;;;;22.41;36.29;100002.40;104336;1313;61939;-84
2022/01/09 04:15:07;;;;;;;3.90;2.50;;;;;;;22.41;36.09;100003.62;104185;1313;73758;-82
2022/01/09 04:17:56;;;;;;;4.50;2.90;;;;;;;22.41;36.18;100004.50;103911;1315;72666;-86
2022/01/09 04:20:31;;;;;;;4.60;2.90;;;;;;;22.41;36.24;100006.48;104009;1314;60462;-81
2022/01/09 04:23:10;;;;;;;4.60;2.50;;;;;;;22.42;36.26;100006.39;104192;1313;61532;-83
2022/01/09 04:25:45;;;;;;;4.10;2.60;;;;;;;22.41;36.22;100008.77;104479;1309;73183;-84
2022/01/09 04:28:31;;;;;;;4.10;2.70;;;;;;;22.41;36.33;100011.48;104353;1309;72893;-82
2022/01/09 04:31:02;;;;;;;4.20;2.80;;;;;;;22.41;36.16;100019.92;104484;1308;61799;-80
2022/01/09 04:33:40;;;;;;;3.90;2.60;;;;;;;22.41;36.24;100022.02;104592;1307;60559;-84
2022/01/09 04:36:26;;;;;;;4.00;2.70;;;;;;;22.42;36.32;100021.30;104645;1306;73373;-80
2022/01/09 04:39:13;;;;;;;3.90;2.60;;;;;;;22.42;36.18;100021.98;104502;1306;75427;-83
2022/01/09 04:41:58;;;;;;;4.90;2.80;;;;;;;22.42;36.12;100019.48;104520;1306;61779;-84
2022/01/09 04:44:27;;;;;;;3.50;2.50;;;;;;;22.42;36.26;100016.27;104577;1307;60494;-84
2022/01/09 04:47:03;;;;;;;5.20;3.00;;;;;;;22.42;36.27;100019.10;104555;1306;72226;-86
2022/01/09 04:50:01;;;;;;;4.20;2.90;;;;;;;22.42;36.14;100020.55;104558;1306;73851;-85
2022/01/09 04:52:38;;;;;;;4.30;3.10;;;;;;;22.42;36.39;100024.68;104545;1306;60366;-83
2022/01/09 04:55:09;;;;;;;3.90;2.70;;;;;;;22.42;36.41;100023.61;104570;1307;61754;-79
2022/01/09 04:57:55;;;;;;;4.00;2.70;;;;;;;22.42;36.38;100020.52;104554;1306;73926;-81
2022/01/09 05:00:36;;;;;;;4.20;2.80;;;;;;;22.42;36.24;100018.60;104395;1308;73227;-83
2022/01/09 05:03:18;;;;;;;;;;;;;;;;;;;;;
2022/01/09 05:06:03;;;;;;;;;;;;;;;;;;;;;
2022/01/09 05:08:49;;;;;;;4.30;2.70;;;;;;;22.42;36.25;100011.92;104546;1307;72724;-82
2022/01/09 05:11:34;;;;;;;4.20;2.90;;;;;;;22.43;36.23;100005.06;104466;1308;75013;-82
2022/01/09 05:14:30;;;;;;;3.70;2.70;;;;;;;22.42;36.29;99998.45;104595;1307;60585;-82
2022/01/09 05:17:10;;;;;;;3.90;2.90;;;;;;;22.42;36.37;99994.88;104665;1306;60566;-82
2022/01/09 05:19:46;;;;;;;4.30;2.70;;;;;;;22.43;36.42;99993.77;104547;1308;74326;-83
2022/01/09 05:22:32;;;;;;;4.00;2.80;;;;;;;22.43;36.30;99997.34;104570;1307;74837;-81
2022/01/09 05:25:07;;;;;;;5.60;3.00;;;;;;;22.44;36.34;99997.48;104493;1308;61050;-82
2022/01/09 05:27:49;;;;;;;;;;;;;;;;;;;;;
2022/01/09 05:30:36;;;;;;;4.90;3.00;;;;;;;22.44;36.22;99997.95;104565;1307;72844;-85
2022/01/09 05:33:10;;;;;;;4.10;2.90;;;;;;;22.44;36.38;99993.70;104506;1306;74071;-83
2022/01/09 05:35:46;;;;;;;4.50;3.00;;;;;;;22.45;36.32;99997.04;104581;1306;60810;-83
2022/01/09 05:38:17;;;;;;;3.90;2.80;;;;;;;22.45;36.27;99997.38;104503;1306;60430;-83
2022/01/09 05:41:04;;;;;;;4.30;3.00;;;;;;;22.45;36.47;99998.09;104513;1306;74055;-82
2022/01/09 05:44:03;;;;;;;4.10;2.90;;;;;;;22.45;36.39;100001.48;104217;1314;74965;-86
2022/01/09 05:46:31;;;;;;;4.60;3.10;;;;;;;22.45;36.13;100005.39;103258;1321;62145;-85
2022/01/09 05:49:10;;;;;;;4.80;3.00;;;;;;;22.46;36.34;100007.88;103549;1319;61554;-83
2022/01/09 05:51:37;;;;;;;4.30;2.90;;;;;;;22.45;36.33;100006.67;103737;1319;72897;-84
2022/01/09 05:54:03;;;;;;;4.20;3.00;;;;;;;22.45;36.34;100008.13;103422;1319;60631;-85
2022/01/09 05:56:36;;;;;;;4.20;2.80;;;;;;;22.46;36.36;100014.36;103558;1320;60482;-83
2022/01/09 05:59:25;;;;;;;5.10;3.20;;;;;;;22.46;36.36;100020.41;103662;1319;61365;-83
2022/01/09 06:01:51;;;;;;;4.40;3.00;;;;;;;22.45;36.29;100026.90;103522;1319;72890;-83
2022/01/09 06:04:25;;;;;;;4.20;3.10;;;;;;;22.45;36.28;100032.30;103608;1318;60614;-82
2022/01/09 06:07:01;;;;;;;4.20;2.90;;;;;;;22.46;36.31;100030.84;103656;1319;60460;-83
2022/01/09 06:09:26;;;;;;;5.00;3.10;;;;;;;22.46;36.51;100035.84;103549;1319;60514;-83
2022/01/09 06:11:55;;;;;;;5.70;3.20;;;;;;;22.46;36.34;100032.05;103658;1319;60465;-83
2022/01/09 06:14:26;;;;;;;4.80;3.10;;;;;;;22.47;36.50;100026.61;103617;1319;75305;-88
2022/01/09 06:16:55;;;;;;;4.30;3.30;;;;;;;22.46;36.27;100025.91;103438;1320;61276;-84
2022/01/09 06:19:32;;;;;;;4.40;3.30;;;;;;;22.47;36.39;100023.22;103595;1320;61614;-87
2022/01/09 06:22:06;;;;;;;4.50;3.10;;;;;;;22.46;36.45;100021.81;104131;1314;72190;-87
2022/01/09 06:24:45;;;;;;;5.00;3.40;;;;;;;22.47;36.44;100023.92;104437;1308;74041;-83
2022/01/09 06:27:10;;;;;;;5.10;3.50;;;;;;;22.47;36.47;100020.85;104557;1306;60448;-88
2022/01/09 06:29:44;;;;;;;4.60;3.20;;;;;;;22.47;36.54;100016.91;104553;1308;60451;-83
2022/01/09 06:32:10;;;;;;;4.80;3.30;;;;;;;22.48;36.35;100016.15;104549;1308;72180;-83
2022/01/09 06:34:42;;;;;;;4.90;3.40;;;;;;;22.47;36.53;100019.94;104464;1308;60531;-82
2022/01/09 06:37:18;;;;;;;4.40;3.10;;;;;;;22.48;36.49;100025.80;104557;1308;60487;-82
2022/01/09 06:40:22;;;;;;;;;;;;;;;;;;;;;
2022/01/09 06:42:51;;;;;;;5.70;3.60;;;;;;;22.48;36.42;100020.20;104556;1307;72657;-83
2022/01/09 06:45:27;;;;;;;4.50;3.20;;;;;;;22.48;36.49;100022.92;104560;1308;73298;-83
2022/01/09 06:48:03;;;;;;;4.70;3.30;;;;;;;22.48;36.57;100027.59;104515;1308;60306;-86
2022/01/09 06:50:29;;;;;;;4.10;3.00;;;;;;;22.48;36.59;100028.64;104650;1308;60379;-82
2022/01/09 06:52:58;;;;;;;5.40;3.50;;;;;;;22.48;36.53;100022.91;104646;1307;60478;-83
2022/01/09 06:55:31;;;;;;;5.30;3.60;;;;;;;22.48;36.56;100018.77;104551;1308;74078;-82
2022/01/09 06:58:02;;;;;;;5.20;3.50;;;;;;;22.49;36.60;100016.21;104564;1308;62144;-92
2022/01/09 07:00:36;;;;;;;5.10;3.70;;;;;;;22.49;36.40;100011.50;104547;1308;60502;-85
2022/01/09 07:03:04;;;;;;;5.10;3.20;;;;;;;22.49;36.49;100007.18;104490;1308;74151;-83
2022/01/09 07:05:33;;;;;;;6.20;3.10;;;;;;;22.50;36.57;100003.94;104490;1308;75069;-84
2022/01/09 07:08:13;;;;;;;5.30;3.50;;;;;;;22.50;36.53;100001.04;104498;1308;60569;-83
2022/01/09 07:10:38;;;;;;;4.60;3.40;;;;;;;22.51;36.62;100002.42;104452;1308;60509;-84
2022/01/09 07:13:15;;;;;;;5.60;3.80;;;;;;;22.50;36.48;100000.66;104481;1308;73438;-84
2022/01/09 07:15:50;;;;;;;4.70;3.30;;;;;;;22.51;36.63;99998.80;104467;1308;75045;-84
2022/01/09 07:18:22;;;;;;;5.10;3.40;;;;;;;22.51;36.59;99994.87;104655;1308;60542;-84
2022/01/09 07:20:57;;;;;;;5.20;3.60;;;;;;;22.51;36.64;99993.73;104510;1308;60471;-84
2022/01/09 07:23:25;;;;;;;4.80;3.40;;;;;;;22.52;36.68;99995.10;104523;1306;72860;-83
2022/01/09 07:26:18;;;;;;;4.50;3.30;;;;;;;22.52;36.59;99992.05;104543;1307;74373;-83
2022/01/09 07:28:48;;;;;;;5.00;3.40;;;;;;;22.53;36.73;99995.23;104553;1306;60455;-84
2022/01/09 07:31:15;;;;;;;5.50;3.60;;;;;;;22.53;36.59;99993.57;104549;1306;60720;-86
2022/01/09 07:33:43;;;;;;;5.80;3.80;;;;;;;22.54;36.58;99990.23;104550;1306;60489;-85
2022/01/09 07:36:30;;;;;;;5.60;3.70;;;;;;;22.54;36.50;99991.51;104564;1306;73836;-85
2022/01/09 07:39:06;;;;;;;4.80;3.80;;;;;;;22.54;36.57;99992.71;104552;1306;60448;-82
2022/01/09 07:41:52;;;;;;;5.80;3.80;;;;;;;22.54;36.57;99988.42;104474;1307;60363;-81
2022/01/09 07:44:21;;;;;;;5.50;3.90;;;;;;;22.55;36.48;99982.98;104512;1307;72889;-82
2022/01/09 07:46:52;;;;;;;5.00;3.70;;;;;;;22.54;36.50;99978.90;104502;1307;74285;-82
2022/01/09 07:49:20;;;;;;;6.50;4.10;;;;;;;22.55;36.50;99981.93;104549;1307;60503;-83
2022/01/09 07:52:05;;;;;;;7.10;4.20;;;;;;;22.55;36.72;99979.08;104649;1306;61414;-83
2022/01/09 07:54:33;;;;;;;5.00;3.80;;;;;;;22.56;36.62;99987.23;104486;1307;72838;-84
2022/01/09 07:57:05;;;;;;;5.80;4.00;;;;;;;22.56;36.63;99987.23;104464;1307;74734;-82
2022/01/09 07:59:44;;;;;;;;;;;;;;;22.56;36.76;99989.33;104543;1307;60446;-84
2022/01/09 08:02:13;;;;;;;5.60;3.60;;;;;;;22.53;36.63;99984.06;104669;1306;60778;-85
2022/01/09 08:04:47;;;;;;;5.40;3.70;;;;;;;22.55;36.67;99986.41;104508;1306;72104;-84
2022/01/09 08:07:15;;;;;;;6.00;3.80;;;;;;;22.55;36.51;99986.41;104669;1306;73858;-83
2022/01/09 08:09:49;;;;;;;6.10;4.00;;;;;;;22.55;36.62;99978.84;104662;1306;61356;-83
2022/01/09 08:12:28;;;;;;;5.30;4.00;;;;;;;22.56;36.56;99974.46;104553;1307;62041;-83
2022/01/09 08:14:54;;;;;;;4.80;3.60;;;;;;;22.56;36.57;99969.43;104471;1307;74156;-84
2022/01/09 08:17:40;;;;;;;5.70;4.00;;;;;;;22.56;36.70;99961.52;104338;1308;74039;-84
2022/01/09 08:20:09;;;;;;;5.90;4.20;;;;;;;22.57;36.45;99962.90;104653;1308;61076;-85
2022/01/09 08:22:49;;;;;;;5.30;3.80;;;;;;;22.57;36.51;99959.14;104502;1308;60523;-84
2022/01/09 08:25:41;;;;;;;5.50;4.10;;;;;;;22.57;36.61;99954.14;104000;1314;71570;-86
2022/01/09 08:28:15;;;;;;;6.00;4.00;;;;;;;22.57;36.65;99951.25;104060;1314;74157;-82
2022/01/09 08:30:46;;;;;;;6.10;4.30;;;;;;;22.57;36.66;99946.55;104214;1314;60552;-85
2022/01/09 08:33:30;;;;;;;6.10;4.30;;;;;;;22.58;36.65;99943.25;103943;1314;61908;-84
2022/01/09 08:36:05;;;;;;;5.70;4.00;;;;;;;22.58;36.57;99932.48;104257;1314;73792;-83
2022/01/09 08:38:34;;;;;;;5.70;3.70;;;;;;;22.58;36.58;99933.73;104191;1314;75281;-87
2022/01/09 08:41:09;;;;;;;5.90;4.10;;;;;;;22.59;36.66;99934.41;104270;1314;60485;-84
2022/01/09 08:44:02;;;;;;;5.00;3.70;;;;;;;22.59;36.59;99935.48;103960;1314;60744;-84
2022/01/09 08:46:28;;;;;;;5.90;4.20;;;;;;;22.59;36.59;99940.83;104189;1314;73831;-83
2022/01/09 08:49:15;;;;;;;5.50;4.30;;;;;;;22.60;36.54;99942.76;104029;1314;74155;-83
2022/01/09 08:51:47;;;;;;;5.80;4.10;;;;;;;22.60;36.52;99936.50;104209;1314;61484;-85
2022/01/09 08:54:21;;;;;;;7.30;4.20;;;;;;;22.60;36.69;99930.69;103886;1313;60589;-85
2022/01/09 08:56:58;;;;;;;5.60;4.20;;;;;;;22.61;36.65;99922.05;104219;1314;73806;-84
2022/01/09 08:59:34;;;;;;;6.50;4.20;;;;;;;22.61;36.48;99917.58;104200;1314;74231;-83
2022/01/09 09:02:06;;;;;;;6.80;4.30;;;;;;;22.60;36.65;99916.53;103853;1314;60468;-83
2022/01/09 09:04:44;;;;;;;5.70;4.10;;;;;;;22.61;36.73;99921.35;104501;1306;60536;-82
2022/01/09 09:07:30;;;;;;;6.20;4.30;;;;;;;22.60;36.51;99928.00;104573;1307;73834;-85
2022/01/09 09:10:04;;;;;;;6.30;4.20;;;;;;;22.60;36.67;99931.77;104439;1307;77084;-85
2022/01/09 09:12:41;;;;;;;6.90;4.90;;;;;;;22.61;36.59;99932.27;104539;1306;60558;-85
2022/01/09 09:15:19;;;;;;;6.90;4.60;;;;;;;22.60;36.62;99934.09;104575;1306;61154;-82
2022/01/09 09:18:11;;;;;;;6.50;4.50;;;;;;;22.60;36.61;99938.05;104549;1307;74603;-85
2022/01/09 09:20:48;;;;;;;6.40;4.50;;;;;;;22.61;36.73;99933.89;104501;1308;75017;-82
2022/01/09 09:23:23;;;;;;;6.10;4.30;;;;;;;22.61;36.85;99933.86;104559;1307;61544;-83
2022/01/09 09:26:19;;;;;;;6.10;4.20;;;;;;;22.61;36.68;99930.44;104536;1308;60526;-82
2022/01/09 09:28:45;;;;;;;6.00;4.20;;;;;;;22.62;36.70;99925.95;104626;1306;72204;-82
2022/01/09 09:31:44;;;;;;;5.90;4.30;;;;;;;22.62;36.73;99926.77;104581;1307;72734;-85
2022/01/09 09:34:10;;;;;;;;;;;;;;;22.63;36.71;99924.94;104537;1308;60437;-82
2022/01/09 09:36:38;;;;;;;5.90;3.90;;;;;;;22.60;36.76;99924.58;104469;1307;60569;-87
2022/01/09 09:39:18;;;;;;;6.10;4.10;;;;;;;22.61;36.86;99919.67;104483;1307;72886;-86
2022/01/09 09:41:56;;;;;;;;;;;;;;;;;;;;;
2022/01/09 09:44:25;;;;;;;5.80;4.40;;;;;;;22.62;36.66;99911.90;104458;1306;60387;-83
2022/01/09 09:46:53;;;;;;;6.60;4.60;;;;;;;22.62;36.80;99910.44;104462;1307;60748;-83
2022/01/09 09:49:42;;;;;;;6.30;4.30;;;;;;;22.62;36.81;99904.89;104487;1308;71540;-81
2022/01/09 09:52:07;;;;;;;6.60;4.40;;;;;;;22.62;36.77;99902.55;104446;1308;74794;-81
2022/01/09 09:54:40;;;;;;;5.30;4.10;;;;;;;22.63;36.87;99898.16;104568;1307;59320;-84
2022/01/09 09:57:29;;;;;;;5.60;4.00;;;;;;;22.64;36.74;99898.47;104541;1308;60351;-83
2022/01/09 10:00:08;;;;;;;6.50;4.30;;;;;;;22.64;36.76;99900.09;104639;1306;72835;-85
2022/01/09 10:02:50;;;;;;;5.90;4.20;;;;;;;22.64;36.81;99894.48;104657;1306;73974;-85
2022/01/09 10:05:22;;;;;;;5.40;3.90;;;;;;;22.64;36.75;99892.15;104564;1306;61560;-83
2022/01/09 10:07:55;;;;;;;5.60;4.00;;;;;;;22.65;36.66;99891.05;104463;1308;60502;-83
2022/01/09 10:10:32;;;;;;;6.00;4.00;;;;;;;22.65;36.77;99889.55;104490;1306;72789;-84
2022/01/09 10:13:19;;;;;;;5.80;4.00;;;;;;;22.65;36.62;99887.83;104527;1307;73909;-81
2022/01/09 10:15:55;;;;;;;5.60;4.00;;;;;;;22.65;36.70;99887.04;104535;1308;60501;-84
2022/01/09 10:18:45;;;;;;;5.30;4.10;;;;;;;22.66;36.87;99880.01;104505;1308;61624;-84
2022/01/09 10:21:22;;;;;;;5.20;3.70;;;;;;;22.66;36.76;99880.52;104500;1307;73063;-83
2022/01/09 10:24:11;;;;;;;6.50;4.10;;;;;;;22.66;36.84;99877.23;104505;1306;74305;-84
2022/01/09 10:26:40;;;;;;;6.30;4.20;;;;;;;22.66;36.72;99870.66;104585;1307;60373;-82
2022/01/09 10:29:17;;;;;;;6.70;4.00;;;;;;;22.66;36.84;99865.99;104558;1307;60457;-84
2022/01/09 10:31:55;;;;;;;6.40;4.00;;;;;;;22.67;36.86;99863.42;104449;1308;73958;-84
2022/01/09 10:34:24;;;;;;;4.80;3.90;;;;;;;22.67;36.78;99861.40;104592;1308;73952;-85
2022/01/09 10:36:51;;;;;;;6.70;3.80;;;;;;;22.67;36.82;99865.52;104509;1308;60506;-83
2022/01/09 10:39:29;;;;;;;6.20;4.20;;;;;;;22.68;36.85;99867.27;104391;1311;61438;-84
2022/01/09 10:42:04;;;;;;;5.80;4.10;;;;;;;22.68;36.63;99859.91;104331;1310;74142;-86
2022/01/09 10:44:35;;;;;;;5.50;4.00;;;;;;;22.68;36.74;99860.10;104266;1311;73902;-86
2022/01/09 10:47:10;;;;;;;5.80;4.10;;;;;;;22.68;36.61;99858.45;104422;1311;60463;-84
2022/01/09 10:49:44;;;;;;;5.40;3.60;;;;;;;22.68;36.76;99853.78;104293;1311;60443;-83
2022/01/09 10:52:25;;;;;;;6.40;3.80;;;;;;;22.68;36.57;99853.59;104357;1310;73863;-82
2022/01/09 10:55:08;;;;;;;6.10;4.10;;;;;;;22.68;36.72;99855.02;104356;1311;73858;-82
2022/01/09 10:57:37;;;;;;;6.30;4.10;;;;;;;22.68;36.86;99855.23;104379;1310;60609;-84
2022/01/09 11:00:12;;;;;;;7.10;4.00;;;;;;;22.68;36.70;99855.71;104381;1311;60341;-80
2022/01/09 11:02:44;;;;;;;5.40;4.00;;;;;;;22.68;36.80;99855.36;104293;1313;73032;-84
2022/01/09 11:05:15;;;;;;;6.70;4.60;;;;;;;22.69;36.82;99853.71;104238;1313;75493;-84
2022/01/09 11:07:43;;;;;;;5.70;3.80;;;;;;;22.69;36.82;99853.55;104262;1313;60933;-84
2022/01/09 11:10:28;;;;;;;;;;;;;;;;;;;;;
2022/01/09 11:13:00;;;;;;;5.30;3.60;;;;;;;22.69;36.76;99856.56;104298;1311;73758;-83
2022/01/09 11:16:32;;;;;;;5.40;3.90;;;;;;;22.69;36.81;99850.46;104366;1310;73120;-84
2022/01/09 11:18:28;;;;;;;5.90;4.30;;;;;;;22.69;36.78;99848.29;104400;1311;60575;-83
2022/01/09 11:21:03;;;;;;;5.80;4.00;;;;;;;22.69;36.86;99847.21;104371;1311;60505;-83
2022/01/09 11:23:38;;;;;;;5.90;4.20;;;;;;;22.70;36.66;99845.17;104429;1310;73991;-86
2022/01/09 11:26:04;;;;;;;5.10;4.00;;;;;;;22.70;36.74;99841.55;104418;1310;73957;-87
2022/01/09 11:28:43;;;;;;;;;;;;;;;;;;;;;
2022/01/09 11:31:43;;;;;;;5.50;4.00;;;;;;;22.68;36.76;99837.27;104430;1309;60636;-83
2022/01/09 11:34:23;;;;;;;5.50;4.30;;;;;;;22.69;36.91;99833.98;104535;1308;72011;-83
2022/01/09 11:37:34;;;;;;;5.70;4.00;;;;;;;22.69;36.83;99832.15;104549;1306;74362;-84
2022/01/09 11:40:01;;;;;;;5.60;3.90;;;;;;;22.69;36.78;99828.23;104417;1308;60449;-84
2022/01/09 11:42:36;;;;;;;5.80;4.30;;;;;;;22.70;36.71;99827.08;104436;1308;60380;-86
2022/01/09 11:45:08;;;;;;;5.40;3.80;;;;;;;22.70;36.83;99818.98;104578;1306;73398;-84
2022/01/09 11:47:46;;;;;;;5.60;4.00;;;;;;;22.70;36.82;99816.43;104471;1307;73773;-82
2022/01/09 11:50:18;;;;;;;6.30;3.90;;;;;;;22.71;36.71;99813.50;104481;1306;62846;-85
2022/01/09 11:52:59;;;;;;;6.90;3.90;;;;;;;22.71;36.59;99814.73;104471;1308;60623;-84
2022/01/09 11:55:36;;;;;;;5.60;4.00;;;;;;;22.71;36.72;99817.96;104568;1306;73480;-83
2022/01/09 11:58:22;;;;;;;5.90;4.30;;;;;;;22.72;36.58;99819.91;104561;1306;73797;-88
2022/01/09 12:00:52;;;;;;;6.20;4.10;;;;;;;22.71;36.76;99820.15;104510;1308;61459;-80
2022/01/09 12:03:34;;;;;;;5.50;4.00;;;;;;;22.71;36.67;99810.66;104492;1306;60711;-85
2022/01/09 12:06:13;;;;;;;6.60;4.30;;;;;;;22.71;36.71;99808.11;104446;1308;73996;-83
2022/01/09 12:09:14;;;;;;;6.10;4.10;;;;;;;22.72;36.59;99813.63;104673;1306;73961;-84
2022/01/09 12:12:08;;;;;;;5.60;3.90;;;;;;;22.71;36.77;99812.78;104234;1315;60473;-82
2022/01/09 12:14:55;;;;;;;5.40;4.30;;;;;;;22.71;36.70;99809.17;104233;1313;61449;-87
2022/01/09 12:17:31;;;;;;;6.10;4.50;;;;;;;22.71;36.80;99808.70;104253;1315;73967;-85
2022/01/09 12:20:37;;;;;;;6.20;4.50;;;;;;;22.71;36.67;99804.39;104052;1315;73429;-82
2022/01/09 12:23:20;;;;;;;6.70;4.50;;;;;;;22.70;36.53;99803.71;103887;1316;60805;-84